sensor_id;sensor_type;location;lat;lon;timestamp;pressure;altitude;pressure_sealevel;temperature;humidity
38852;BME280;24605;50.092;9.182;2022-09-01T00:01:50;98277.50;;;15.51;71.30
38852;BME280;24605;50.092;9.182;2022-09-01T00:04:19;98274.22;;;15.49;71.30
38852;BME280;24605;50.092;9.182;2022-09-01T00:06:47;98260.34;;;15.40;71.89
38852;BME280;24605;50.092;9.182;2022-09-01T00:09:15;98280.31;;;15.49;71.77
38852;BME280;24605;50.092;9.182;2022-09-01T00:11:44;98278.25;;;15.45;72.28
38852;BME280;24605;50.092;9.182;2022-09-01T00:14:12;98279.00;;;15.39;72.42
38852;BME280;24605;50.092;9.182;2022-09-01T00:16:39;98270.06;;;15.33;72.68
38852;BME280;24605;50.092;9.182;2022-09-01T00:19:07;98281.72;;;15.45;72.41
38852;BME280;24605;50.092;9.182;2022-09-01T00:21:37;98281.06;;;15.37;72.83
38852;BME280;24605;50.092;9.182;2022-09-01T00:24:04;98281.34;;;15.27;72.99
38852;BME280;24605;50.092;9.182;2022-09-01T00:26:31;98278.78;;;15.33;73.23
38852;BME280;24605;50.092;9.182;2022-09-01T00:28:58;98279.00;;;15.39;73.24
38852;BME280;24605;50.092;9.182;2022-09-01T00:31:24;98275.13;;;15.34;73.38
38852;BME280;24605;50.092;9.182;2022-09-01T00:33:51;98283.69;;;15.37;73.24
38852;BME280;24605;50.092;9.182;2022-09-01T00:36:20;98264.28;;;15.23;73.28
38852;BME280;24605;50.092;9.182;2022-09-01T00:38:47;98272.56;;;15.19;74.00
38852;BME280;24605;50.092;9.182;2022-09-01T00:41:15;98281.94;;;15.22;74.34
38852;BME280;24605;50.092;9.182;2022-09-01T00:43:46;98277.22;;;15.17;74.31
38852;BME280;24605;50.092;9.182;2022-09-01T00:46:16;98268.22;;;15.12;74.55
38852;BME280;24605;50.092;9.182;2022-09-01T00:48:44;98276.97;;;15.12;75.18
38852;BME280;24605;50.092;9.182;2022-09-01T00:51:13;98269.06;;;15.12;74.80
38852;BME280;24605;50.092;9.182;2022-09-01T00:53:42;98264.91;;;15.03;75.39
38852;BME280;24605;50.092;9.182;2022-09-01T00:56:10;98267.94;;;15.00;75.61
38852;BME280;24605;50.092;9.182;2022-09-01T00:58:38;98271.00;;;15.03;75.64
38852;BME280;24605;50.092;9.182;2022-09-01T01:01:07;98270.53;;;14.93;75.92
38852;BME280;24605;50.092;9.182;2022-09-01T01:03:34;98272.78;;;14.96;76.44
38852;BME280;24605;50.092;9.182;2022-09-01T01:06:04;98266.28;;;14.99;76.96
38852;BME280;24605;50.092;9.182;2022-09-01T01:08:34;98270.53;;;14.93;77.27
38852;BME280;24605;50.092;9.182;2022-09-01T01:11:05;98265.69;;;14.97;77.21
38852;BME280;24605;50.092;9.182;2022-09-01T01:13:46;98265.84;;;14.95;77.16
38852;BME280;24605;50.092;9.182;2022-09-01T01:16:13;98263.91;;;15.04;77.03
38852;BME280;24605;50.092;9.182;2022-09-01T01:18:40;98246.56;;;14.95;76.89
38852;BME280;24605;50.092;9.182;2022-09-01T01:21:13;98261.94;;;15.13;76.93
38852;BME280;24605;50.092;9.182;2022-09-01T01:24:01;98263.97;;;15.11;76.87
38852;BME280;24605;50.092;9.182;2022-09-01T01:26:32;98260.31;;;15.12;77.21
38852;BME280;24605;50.092;9.182;2022-09-01T01:28:59;98258.69;;;15.11;77.29
38852;BME280;24605;50.092;9.182;2022-09-01T01:31:27;98259.31;;;15.13;77.18
38852;BME280;24605;50.092;9.182;2022-09-01T01:33:55;98240.16;;;15.04;77.14
38852;BME280;24605;50.092;9.182;2022-09-01T01:36:26;98231.88;;;14.85;77.63
38852;BME280;24605;50.092;9.182;2022-09-01T01:38:58;98259.78;;;14.95;78.48
38852;BME280;24605;50.092;9.182;2022-09-01T01:41:26;98229.16;;;14.79;78.11
38852;BME280;24605;50.092;9.182;2022-09-01T01:43:55;98249.56;;;14.92;78.48
38852;BME280;24605;50.092;9.182;2022-09-01T01:46:22;98230.34;;;14.76;78.81
38852;BME280;24605;50.092;9.182;2022-09-01T01:48:50;98245.94;;;14.93;78.17
38852;BME280;24605;50.092;9.182;2022-09-01T01:51:18;98249.44;;;15.00;78.48
38852;BME280;24605;50.092;9.182;2022-09-01T01:53:49;98239.72;;;15.00;77.74
38852;BME280;24605;50.092;9.182;2022-09-01T01:56:17;98236.22;;;14.93;77.81
38852;BME280;24605;50.092;9.182;2022-09-01T01:58:44;98240.53;;;15.01;77.99
38852;BME280;24605;50.092;9.182;2022-09-01T02:01:11;98243.41;;;15.06;77.86
38852;BME280;24605;50.092;9.182;2022-09-01T02:03:39;98239.09;;;14.98;78.08
38852;BME280;24605;50.092;9.182;2022-09-01T02:06:07;98235.19;;;14.94;78.42
38852;BME280;24605;50.092;9.182;2022-09-01T02:08:36;98240.09;;;14.97;78.45
38852;BME280;24605;50.092;9.182;2022-09-01T02:11:04;98235.63;;;14.98;78.30
38852;BME280;24605;50.092;9.182;2022-09-01T02:13:31;98239.44;;;14.95;78.56
38852;BME280;24605;50.092;9.182;2022-09-01T02:16:02;98190.94;;;14.53;79.37
38852;BME280;24605;50.092;9.182;2022-09-01T02:18:34;98228.84;;;14.88;78.83
38852;BME280;24605;50.092;9.182;2022-09-01T02:21:02;98238.06;;;14.99;78.98
38852;BME280;24605;50.092;9.182;2022-09-01T02:23:30;98229.91;;;14.94;78.79
38852;BME280;24605;50.092;9.182;2022-09-01T02:25:58;98229.41;;;14.84;79.62
38852;BME280;24605;50.092;9.182;2022-09-01T02:28:27;98230.22;;;14.84;79.13
38852;BME280;24605;50.092;9.182;2022-09-01T02:30:57;98235.38;;;14.93;79.24
38852;BME280;24605;50.092;9.182;2022-09-01T02:33:24;98228.53;;;14.77;80.05
38852;BME280;24605;50.092;9.182;2022-09-01T02:35:55;98234.25;;;14.80;80.05
38852;BME280;24605;50.092;9.182;2022-09-01T02:38:22;98227.59;;;14.84;79.58
38852;BME280;24605;50.092;9.182;2022-09-01T02:40:50;98219.53;;;14.93;79.53
38852;BME280;24605;50.092;9.182;2022-09-01T02:43:19;98225.22;;;14.90;79.38
38852;BME280;24605;50.092;9.182;2022-09-01T02:45:46;98223.81;;;14.94;79.32
38852;BME280;24605;50.092;9.182;2022-09-01T02:48:16;98231.34;;;14.97;79.54
38852;BME280;24605;50.092;9.182;2022-09-01T02:50:42;98221.53;;;14.91;79.31
38852;BME280;24605;50.092;9.182;2022-09-01T02:53:10;98225.06;;;14.98;78.84
38852;BME280;24605;50.092;9.182;2022-09-01T02:55:40;98225.25;;;14.96;79.37
38852;BME280;24605;50.092;9.182;2022-09-01T02:58:07;98219.78;;;14.98;79.31
38852;BME280;24605;50.092;9.182;2022-09-01T03:00:35;98224.81;;;14.93;79.35
38852;BME280;24605;50.092;9.182;2022-09-01T03:03:04;98222.03;;;15.01;78.74
38852;BME280;24605;50.092;9.182;2022-09-01T03:05:32;98217.75;;;15.00;78.79
38852;BME280;24605;50.092;9.182;2022-09-01T03:08:02;98218.16;;;14.97;79.31
38852;BME280;24605;50.092;9.182;2022-09-01T03:10:32;98218.28;;;14.88;79.73
38852;BME280;24605;50.092;9.182;2022-09-01T03:13:00;98212.44;;;14.93;79.36
38852;BME280;24605;50.092;9.182;2022-09-01T03:15:28;98210.75;;;14.85;79.54
38852;BME280;24605;50.092;9.182;2022-09-01T03:17:55;98213.72;;;14.76;80.07
38852;BME280;24605;50.092;9.182;2022-09-01T03:20:25;98212.59;;;14.85;79.77
38852;BME280;24605;50.092;9.182;2022-09-01T03:22:51;98209.38;;;14.90;79.67
38852;BME280;24605;50.092;9.182;2022-09-01T03:25:19;98212.63;;;14.92;79.55
38852;BME280;24605;50.092;9.182;2022-09-01T03:27:50;98215.88;;;14.94;79.78
38852;BME280;24605;50.092;9.182;2022-09-01T03:30:18;98217.72;;;14.93;79.48
38852;BME280;24605;50.092;9.182;2022-09-01T03:32:44;98211.88;;;14.76;80.25
38852;BME280;24605;50.092;9.182;2022-09-01T03:35:12;98200.75;;;14.81;79.55
38852;BME280;24605;50.092;9.182;2022-09-01T03:37:41;98213.00;;;14.88;79.42
38852;BME280;24605;50.092;9.182;2022-09-01T03:40:11;98200.38;;;14.84;79.33
38852;BME280;24605;50.092;9.182;2022-09-01T03:42:38;98209.75;;;14.86;79.81
38852;BME280;24605;50.092;9.182;2022-09-01T03:45:07;98213.19;;;14.87;80.18
38852;BME280;24605;50.092;9.182;2022-09-01T03:47:37;98210.38;;;14.88;79.91
38852;BME280;24605;50.092;9.182;2022-09-01T03:50:05;98210.53;;;14.87;80.02
38852;BME280;24605;50.092;9.182;2022-09-01T03:52:32;98210.59;;;14.94;79.36
38852;BME280;24605;50.092;9.182;2022-09-01T03:54:59;98212.00;;;14.68;81.11
38852;BME280;24605;50.092;9.182;2022-09-01T03:57:25;98208.09;;;14.85;80.28
38852;BME280;24605;50.092;9.182;2022-09-01T03:59:54;98207.63;;;14.60;80.85
38852;BME280;24605;50.092;9.182;2022-09-01T04:02:22;98210.59;;;14.50;81.56
38852;BME280;24605;50.092;9.182;2022-09-01T04:04:50;98217.28;;;14.68;81.41
38852;BME280;24605;50.092;9.182;2022-09-01T04:07:16;98214.22;;;14.49;82.15
38852;BME280;24605;50.092;9.182;2022-09-01T04:09:43;98214.22;;;14.28;83.73
38852;BME280;24605;50.092;9.182;2022-09-01T04:12:10;98210.88;;;14.19;83.79
38852;BME280;24605;50.092;9.182;2022-09-01T04:14:40;98210.31;;;14.23;83.81
38852;BME280;24605;50.092;9.182;2022-09-01T04:17:06;98207.97;;;14.14;84.36
38852;BME280;24605;50.092;9.182;2022-09-01T04:19:51;98213.31;;;14.20;84.86
38852;BME280;24605;50.092;9.182;2022-09-01T04:22:18;98210.66;;;14.20;84.55
38852;BME280;24605;50.092;9.182;2022-09-01T04:24:45;98211.66;;;14.19;84.44
38852;BME280;24605;50.092;9.182;2022-09-01T04:27:12;98209.13;;;14.26;83.75
38852;BME280;24605;50.092;9.182;2022-09-01T04:29:39;98203.81;;;14.04;84.28
38852;BME280;24605;50.092;9.182;2022-09-01T04:32:08;98217.59;;;14.06;85.04
38852;BME280;24605;50.092;9.182;2022-09-01T04:34:37;98210.22;;;14.17;84.13
38852;BME280;24605;50.092;9.182;2022-09-01T04:37:12;98221.50;;;14.25;84.43
38852;BME280;24605;50.092;9.182;2022-09-01T04:39:39;98215.59;;;14.23;84.46
38852;BME280;24605;50.092;9.182;2022-09-01T04:42:13;98217.97;;;14.18;84.78
38852;BME280;24605;50.092;9.182;2022-09-01T04:44:40;98223.41;;;14.17;84.62
38852;BME280;24605;50.092;9.182;2022-09-01T04:47:07;98194.09;;;13.90;85.79
38852;BME280;24605;50.092;9.182;2022-09-01T04:49:35;98209.31;;;14.24;85.08
38852;BME280;24605;50.092;9.182;2022-09-01T04:52:02;98219.22;;;14.22;84.93
38852;BME280;24605;50.092;9.182;2022-09-01T04:54:30;98224.78;;;14.28;84.81
38852;BME280;24605;50.092;9.182;2022-09-01T04:56:59;98202.03;;;14.26;84.59
38852;BME280;24605;50.092;9.182;2022-09-01T04:59:26;98220.19;;;14.36;84.29
38852;BME280;24605;50.092;9.182;2022-09-01T05:01:53;98223.78;;;14.50;84.06
38852;BME280;24605;50.092;9.182;2022-09-01T05:04:23;98219.00;;;14.39;83.80
38852;BME280;24605;50.092;9.182;2022-09-01T05:06:53;98225.66;;;14.71;83.27
38852;BME280;24605;50.092;9.182;2022-09-01T05:09:24;98234.75;;;14.91;81.91
38852;BME280;24605;50.092;9.182;2022-09-01T05:11:52;98226.50;;;15.00;80.66
38852;BME280;24605;50.092;9.182;2022-09-01T05:14:19;98233.28;;;15.10;80.30
38852;BME280;24605;50.092;9.182;2022-09-01T05:16:47;98225.03;;;15.19;79.68
38852;BME280;24605;50.092;9.182;2022-09-01T05:19:16;98232.75;;;15.21;79.62
38852;BME280;24605;50.092;9.182;2022-09-01T05:21:46;98234.00;;;15.25;79.70
38852;BME280;24605;50.092;9.182;2022-09-01T05:24:17;98234.22;;;15.24;79.84
38852;BME280;24605;50.092;9.182;2022-09-01T05:26:44;98228.81;;;15.10;80.28
38852;BME280;24605;50.092;9.182;2022-09-01T05:29:16;98234.97;;;15.17;80.10
38852;BME280;24605;50.092;9.182;2022-09-01T05:31:45;98225.16;;;15.40;78.96
38852;BME280;24605;50.092;9.182;2022-09-01T05:34:13;98226.69;;;15.56;78.74
38852;BME280;24605;50.092;9.182;2022-09-01T05:36:45;98223.84;;;15.50;77.28
38852;BME280;24605;50.092;9.182;2022-09-01T05:39:14;98225.69;;;15.57;77.31
38852;BME280;24605;50.092;9.182;2022-09-01T05:41:41;98231.78;;;15.57;77.86
38852;BME280;24605;50.092;9.182;2022-09-01T05:44:08;98233.41;;;15.58;77.52
38852;BME280;24605;50.092;9.182;2022-09-01T05:46:37;98233.03;;;15.61;76.98
38852;BME280;24605;50.092;9.182;2022-09-01T05:49:04;98239.25;;;15.82;76.36
38852;BME280;24605;50.092;9.182;2022-09-01T05:51:41;98236.50;;;15.97;75.36
38852;BME280;24605;50.092;9.182;2022-09-01T05:54:09;98224.53;;;16.01;75.13
38852;BME280;24605;50.092;9.182;2022-09-01T05:56:37;98243.31;;;16.26;74.06
38852;BME280;24605;50.092;9.182;2022-09-01T05:59:05;98233.78;;;16.32;73.75
38852;BME280;24605;50.092;9.182;2022-09-01T06:01:32;98245.03;;;16.54;72.66
38852;BME280;24605;50.092;9.182;2022-09-01T06:04:02;98240.59;;;16.62;72.51
38852;BME280;24605;50.092;9.182;2022-09-01T06:06:35;98240.81;;;16.73;72.18
38852;BME280;24605;50.092;9.182;2022-09-01T06:09:04;98243.88;;;16.84;71.79
38852;BME280;24605;50.092;9.182;2022-09-01T06:11:31;98242.69;;;16.93;71.42
38852;BME280;24605;50.092;9.182;2022-09-01T06:13:59;98244.50;;;16.92;71.24
38852;BME280;24605;50.092;9.182;2022-09-01T06:16:27;98249.63;;;17.01;70.79
38852;BME280;24605;50.092;9.182;2022-09-01T06:18:54;98238.22;;;17.00;70.55
38852;BME280;24605;50.092;9.182;2022-09-01T06:21:25;98246.78;;;16.96;71.15
38852;BME280;24605;50.092;9.182;2022-09-01T06:23:54;98241.47;;;17.29;69.00
38852;BME280;24605;50.092;9.182;2022-09-01T06:26:24;98214.19;;;17.02;69.69
38852;BME280;24605;50.092;9.182;2022-09-01T06:28:53;98242.09;;;17.31;68.90
38852;BME280;24605;50.092;9.182;2022-09-01T06:31:20;98258.38;;;17.35;69.30
38852;BME280;24605;50.092;9.182;2022-09-01T06:33:48;98248.81;;;17.54;68.20
38852;BME280;24605;50.092;9.182;2022-09-01T06:36:15;98240.63;;;17.49;67.96
38852;BME280;24605;50.092;9.182;2022-09-01T06:38:43;98253.03;;;17.75;67.40
38852;BME280;24605;50.092;9.182;2022-09-01T06:41:11;98256.91;;;17.79;66.76
38852;BME280;24605;50.092;9.182;2022-09-01T06:43:38;98245.66;;;17.84;67.11
38852;BME280;24605;50.092;9.182;2022-09-01T06:46:06;98255.59;;;18.09;65.90
38852;BME280;24605;50.092;9.182;2022-09-01T06:48:34;98246.00;;;18.14;65.62
38852;BME280;24605;50.092;9.182;2022-09-01T06:51:00;98243.72;;;18.18;64.72
38852;BME280;24605;50.092;9.182;2022-09-01T06:53:28;98251.28;;;18.21;64.66
38852;BME280;24605;50.092;9.182;2022-09-01T06:55:57;98255.38;;;18.17;64.44
38852;BME280;24605;50.092;9.182;2022-09-01T06:58:23;98259.00;;;18.29;64.13
38852;BME280;24605;50.092;9.182;2022-09-01T07:00:50;98206.91;;;17.96;64.01
38852;BME280;24605;50.092;9.182;2022-09-01T07:03:17;98254.75;;;18.60;63.59
38852;BME280;24605;50.092;9.182;2022-09-01T07:05:46;98261.66;;;18.68;63.04
38852;BME280;24605;50.092;9.182;2022-09-01T07:08:15;98261.09;;;18.91;61.54
38852;BME280;24605;50.092;9.182;2022-09-01T07:10:45;98270.75;;;18.92;61.44
38852;BME280;24605;50.092;9.182;2022-09-01T07:13:16;98263.50;;;18.68;62.36
38852;BME280;24605;50.092;9.182;2022-09-01T07:15:47;98277.06;;;18.85;61.57
38852;BME280;24605;50.092;9.182;2022-09-01T07:18:14;98268.19;;;18.72;61.96
38852;BME280;24605;50.092;9.182;2022-09-01T07:20:42;98273.41;;;18.92;60.44
38852;BME280;24605;50.092;9.182;2022-09-01T07:23:09;98270.34;;;19.14;59.35
38852;BME280;24605;50.092;9.182;2022-09-01T07:25:38;98267.88;;;19.19;58.50
38852;BME280;24605;50.092;9.182;2022-09-01T07:28:06;98269.72;;;18.87;60.23
38852;BME280;24605;50.092;9.182;2022-09-01T07:30:39;98277.56;;;19.57;58.04
38852;BME280;24605;50.092;9.182;2022-09-01T07:33:06;98282.81;;;19.90;56.89
38852;BME280;24605;50.092;9.182;2022-09-01T07:35:36;98280.81;;;19.85;56.62
38852;BME280;24605;50.092;9.182;2022-09-01T07:38:03;98287.53;;;19.87;56.53
38852;BME280;24605;50.092;9.182;2022-09-01T07:40:35;98280.66;;;19.98;55.77
38852;BME280;24605;50.092;9.182;2022-09-01T07:43:04;98275.53;;;19.78;55.57
38852;BME280;24605;50.092;9.182;2022-09-01T07:45:35;98275.59;;;19.28;57.84
38852;BME280;24605;50.092;9.182;2022-09-01T07:48:06;98285.06;;;19.42;57.26
38852;BME280;24605;50.092;9.182;2022-09-01T07:50:35;98291.06;;;19.81;56.32
38852;BME280;24605;50.092;9.182;2022-09-01T07:53:02;98281.47;;;20.17;54.95
38852;BME280;24605;50.092;9.182;2022-09-01T07:55:29;98296.06;;;20.45;54.00
38852;BME280;24605;50.092;9.182;2022-09-01T07:57:56;98300.41;;;20.09;55.44
38852;BME280;24605;50.092;9.182;2022-09-01T08:00:23;98293.97;;;19.98;55.83
38852;BME280;24605;50.092;9.182;2022-09-01T08:02:51;98292.78;;;20.31;54.63
38852;BME280;24605;50.092;9.182;2022-09-01T08:05:18;98291.06;;;20.67;53.16
38852;BME280;24605;50.092;9.182;2022-09-01T08:07:50;98300.41;;;20.77;53.63
38852;BME280;24605;50.092;9.182;2022-09-01T08:10:16;98298.22;;;20.74;53.58
38852;BME280;24605;50.092;9.182;2022-09-01T08:12:43;98308.91;;;20.86;52.72
38852;BME280;24605;50.092;9.182;2022-09-01T08:15:10;98309.19;;;20.96;52.05
38852;BME280;24605;50.092;9.182;2022-09-01T08:17:38;98303.53;;;21.16;52.07
38852;BME280;24605;50.092;9.182;2022-09-01T08:20:08;98296.72;;;20.59;53.09
38852;BME280;24605;50.092;9.182;2022-09-01T08:22:34;98307.88;;;20.68;52.46
38852;BME280;24605;50.092;9.182;2022-09-01T08:25:03;98295.66;;;20.30;53.47
38852;BME280;24605;50.092;9.182;2022-09-01T08:27:31;98298.38;;;20.72;52.56
38852;BME280;24605;50.092;9.182;2022-09-01T08:29:57;98302.34;;;21.00;51.50
38852;BME280;24605;50.092;9.182;2022-09-01T08:32:24;98308.34;;;20.95;51.61
38852;BME280;24605;50.092;9.182;2022-09-01T08:34:51;98305.16;;;20.75;51.98
38852;BME280;24605;50.092;9.182;2022-09-01T08:37:20;98308.13;;;20.66;52.04
38852;BME280;24605;50.092;9.182;2022-09-01T08:39:46;98320.94;;;21.31;50.90
38852;BME280;24605;50.092;9.182;2022-09-01T08:42:18;98310.88;;;21.44;49.40
38852;BME280;24605;50.092;9.182;2022-09-01T08:44:53;98309.03;;;21.45;49.60
38852;BME280;24605;50.092;9.182;2022-09-01T08:47:24;98308.81;;;21.82;48.85
38852;BME280;24605;50.092;9.182;2022-09-01T08:49:51;98308.34;;;21.50;49.07
38852;BME280;24605;50.092;9.182;2022-09-01T08:52:23;98301.50;;;21.78;48.90
38852;BME280;24605;50.092;9.182;2022-09-01T08:54:54;98306.28;;;21.75;49.06
38852;BME280;24605;50.092;9.182;2022-09-01T08:57:28;98310.09;;;21.80;48.90
38852;BME280;24605;50.092;9.182;2022-09-01T08:59:56;98302.59;;;21.77;48.55
38852;BME280;24605;50.092;9.182;2022-09-01T09:02:33;98309.94;;;22.10;47.97
38852;BME280;24605;50.092;9.182;2022-09-01T09:05:06;98309.22;;;22.38;46.97
38852;BME280;24605;50.092;9.182;2022-09-01T09:07:48;98286.97;;;22.21;47.07
38852;BME280;24605;50.092;9.182;2022-09-01T09:10:22;98307.06;;;22.64;46.71
38852;BME280;24605;50.092;9.182;2022-09-01T09:13:00;98289.06;;;22.60;45.77
38852;BME280;24605;50.092;9.182;2022-09-01T09:15:37;98294.41;;;21.95;47.21
38852;BME280;24605;50.092;9.182;2022-09-01T09:18:12;98307.84;;;22.24;47.27
38852;BME280;24605;50.092;9.182;2022-09-01T09:20:41;98305.28;;;22.29;46.65
38852;BME280;24605;50.092;9.182;2022-09-01T09:23:17;98305.06;;;22.19;46.98
38852;BME280;24605;50.092;9.182;2022-09-01T09:25:46;98305.31;;;22.05;45.70
38852;BME280;24605;50.092;9.182;2022-09-01T09:28:15;98299.44;;;22.44;45.73
38852;BME280;24605;50.092;9.182;2022-09-01T09:30:41;98240.38;;;21.64;47.29
38852;BME280;24605;50.092;9.182;2022-09-01T09:33:08;98274.44;;;22.10;45.71
38852;BME280;24605;50.092;9.182;2022-09-01T09:35:38;98291.34;;;22.27;46.23
38852;BME280;24605;50.092;9.182;2022-09-01T09:38:19;98263.31;;;22.01;45.56
38852;BME280;24605;50.092;9.182;2022-09-01T09:40:58;98288.56;;;22.22;46.05
38852;BME280;24605;50.092;9.182;2022-09-01T09:43:25;98282.69;;;22.49;45.33
38852;BME280;24605;50.092;9.182;2022-09-01T09:46:19;98273.78;;;22.31;45.98
38852;BME280;24605;50.092;9.182;2022-09-01T09:51:31;98273.44;;;21.99;46.28
38852;BME280;24605;50.092;9.182;2022-09-01T09:54:10;98267.47;;;22.09;46.27
38852;BME280;24605;50.092;9.182;2022-09-01T09:56:38;98286.06;;;22.56;45.32
38852;BME280;24605;50.092;9.182;2022-09-01T09:59:16;98257.13;;;22.82;44.05
38852;BME280;24605;50.092;9.182;2022-09-01T10:01:44;98269.75;;;21.64;45.48
38852;BME280;24605;50.092;9.182;2022-09-01T10:04:31;98272.84;;;22.49;44.50
38852;BME280;24605;50.092;9.182;2022-09-01T10:06:58;98276.75;;;22.59;43.29
38852;BME280;24605;50.092;9.182;2022-09-01T10:09:34;98279.63;;;22.86;43.13
38852;BME280;24605;50.092;9.182;2022-09-01T10:12:01;98264.19;;;22.59;43.79
38852;BME280;24605;50.092;9.182;2022-09-01T10:14:33;98268.53;;;22.77;43.63
38852;BME280;24605;50.092;9.182;2022-09-01T10:17:03;98262.44;;;23.28;42.94
38852;BME280;24605;50.092;9.182;2022-09-01T10:19:33;98267.13;;;23.38;42.66
38852;BME280;24605;50.092;9.182;2022-09-01T10:22:01;98264.78;;;23.81;41.06
38852;BME280;24605;50.092;9.182;2022-09-01T10:24:30;98263.53;;;23.15;41.58
38852;BME280;24605;50.092;9.182;2022-09-01T10:26:59;98269.06;;;23.42;41.47
38852;BME280;24605;50.092;9.182;2022-09-01T10:29:30;98261.31;;;22.78;42.78
38852;BME280;24605;50.092;9.182;2022-09-01T10:31:58;98258.13;;;23.27;41.85
38852;BME280;24605;50.092;9.182;2022-09-01T10:34:31;98265.06;;;23.11;42.68
38852;BME280;24605;50.092;9.182;2022-09-01T10:37:00;98266.94;;;23.10;42.34
38852;BME280;24605;50.092;9.182;2022-09-01T10:39:27;98262.22;;;23.52;41.62
38852;BME280;24605;50.092;9.182;2022-09-01T10:41:54;98253.13;;;23.70;41.18
38852;BME280;24605;50.092;9.182;2022-09-01T10:44:24;98247.94;;;22.78;43.23
38852;BME280;24605;50.092;9.182;2022-09-01T10:46:55;98255.88;;;23.36;42.27
38852;BME280;24605;50.092;9.182;2022-09-01T10:52:55;98210.22;;;22.91;41.47
38852;BME280;24605;50.092;9.182;2022-09-01T10:55:25;98262.72;;;23.88;41.03
38852;BME280;24605;50.092;9.182;2022-09-01T10:58:01;98254.06;;;23.81;40.05
38852;BME280;24605;50.092;9.182;2022-09-01T11:00:46;98255.03;;;24.36;39.45
38852;BME280;24605;50.092;9.182;2022-09-01T11:03:35;98262.13;;;24.47;38.62
38852;BME280;24605;50.092;9.182;2022-09-01T11:06:03;98252.38;;;24.63;38.62
38852;BME280;24605;50.092;9.182;2022-09-01T11:08:44;98250.94;;;24.55;38.09
38852;BME280;24605;50.092;9.182;2022-09-01T11:11:22;98243.88;;;25.04;37.68
38852;BME280;24605;50.092;9.182;2022-09-01T11:13:52;98243.59;;;24.68;38.05
38852;BME280;24605;50.092;9.182;2022-09-01T11:16:31;98242.78;;;25.00;37.20
38852;BME280;24605;50.092;9.182;2022-09-01T11:19:21;98257.97;;;24.34;39.35
38852;BME280;24605;50.092;9.182;2022-09-01T11:22:08;98258.03;;;24.17;38.50
38852;BME280;24605;50.092;9.182;2022-09-01T11:24:57;98257.13;;;24.34;38.63
38852;BME280;24605;50.092;9.182;2022-09-01T11:31:10;98249.31;;;24.54;37.81
38852;BME280;24605;50.092;9.182;2022-09-01T11:33:47;98244.59;;;24.12;37.79
38852;BME280;24605;50.092;9.182;2022-09-01T11:36:26;98242.97;;;23.33;39.43
38852;BME280;24605;50.092;9.182;2022-09-01T11:39:02;98248.16;;;23.78;38.26
38852;BME280;24605;50.092;9.182;2022-09-01T11:41:33;98217.63;;;23.97;37.12
38852;BME280;24605;50.092;9.182;2022-09-01T11:44:12;98231.69;;;23.30;38.49
38852;BME280;24605;50.092;9.182;2022-09-01T11:46:40;98243.13;;;24.04;36.55
38852;BME280;24605;50.092;9.182;2022-09-01T11:49:25;98242.44;;;23.92;36.63
38852;BME280;24605;50.092;9.182;2022-09-01T11:51:54;98234.59;;;24.30;36.80
38852;BME280;24605;50.092;9.182;2022-09-01T11:54:21;98219.69;;;23.33;37.86
38852;BME280;24605;50.092;9.182;2022-09-01T11:56:50;98222.69;;;24.20;37.14
38852;BME280;24605;50.092;9.182;2022-09-01T11:59:32;98220.72;;;24.65;34.82
38852;BME280;24605;50.092;9.182;2022-09-01T12:01:59;98218.47;;;25.12;34.08
38852;BME280;24605;50.092;9.182;2022-09-01T12:04:30;98219.75;;;24.71;34.37
38852;BME280;24605;50.092;9.182;2022-09-01T12:07:00;98209.69;;;24.62;33.68
38852;BME280;24605;50.092;9.182;2022-09-01T12:09:32;98202.66;;;24.83;33.95
38852;BME280;24605;50.092;9.182;2022-09-01T12:12:01;98218.34;;;24.96;33.85
38852;BME280;24605;50.092;9.182;2022-09-01T12:14:27;98182.41;;;24.65;34.02
38852;BME280;24605;50.092;9.182;2022-09-01T12:16:59;98202.94;;;24.54;34.52
38852;BME280;24605;50.092;9.182;2022-09-01T12:19:30;98206.78;;;24.63;33.99
38852;BME280;24605;50.092;9.182;2022-09-01T12:22:02;98210.38;;;24.74;33.96
38852;BME280;24605;50.092;9.182;2022-09-01T12:24:31;98197.72;;;24.42;34.44
38852;BME280;24605;50.092;9.182;2022-09-01T12:27:00;98206.88;;;24.46;34.14
38852;BME280;24605;50.092;9.182;2022-09-01T12:29:28;98209.44;;;24.08;34.51
38852;BME280;24605;50.092;9.182;2022-09-01T12:31:56;98200.06;;;24.33;33.82
38852;BME280;24605;50.092;9.182;2022-09-01T12:34:27;98190.75;;;24.68;33.46
38852;BME280;24605;50.092;9.182;2022-09-01T12:37:03;98189.25;;;24.83;32.95
38852;BME280;24605;50.092;9.182;2022-09-01T12:39:32;98185.03;;;24.92;32.76
38852;BME280;24605;50.092;9.182;2022-09-01T12:42:04;98189.88;;;24.90;32.36
38852;BME280;24605;50.092;9.182;2022-09-01T12:44:33;98187.41;;;25.21;31.77
38852;BME280;24605;50.092;9.182;2022-09-01T12:47:09;98173.63;;;25.07;32.02
38852;BME280;24605;50.092;9.182;2022-09-01T12:49:39;98181.03;;;24.95;32.23
38852;BME280;24605;50.092;9.182;2022-09-01T12:52:13;98170.06;;;25.39;31.33
38852;BME280;24605;50.092;9.182;2022-09-01T12:54:43;98174.38;;;24.97;31.89
38852;BME280;24605;50.092;9.182;2022-09-01T12:57:23;98175.38;;;25.29;31.54
38852;BME280;24605;50.092;9.182;2022-09-01T13:00:05;98178.28;;;25.75;30.98
38852;BME280;24605;50.092;9.182;2022-09-01T13:02:34;98172.41;;;25.84;30.39
38852;BME280;24605;50.092;9.182;2022-09-01T13:05:22;98149.53;;;25.12;31.50
38852;BME280;24605;50.092;9.182;2022-09-01T13:07:52;98142.25;;;25.08;32.29
38852;BME280;24605;50.092;9.182;2022-09-01T13:10:19;98124.78;;;25.05;31.98
38852;BME280;24605;50.092;9.182;2022-09-01T13:12:47;98165.31;;;24.71;32.63
38852;BME280;24605;50.092;9.182;2022-09-01T13:15:13;98165.72;;;24.58;33.22
38852;BME280;24605;50.092;9.182;2022-09-01T13:17:40;98154.63;;;24.76;32.32
38852;BME280;24605;50.092;9.182;2022-09-01T13:20:08;98162.25;;;24.95;31.19
38852;BME280;24605;50.092;9.182;2022-09-01T13:22:37;98159.28;;;25.29;31.17
38852;BME280;24605;50.092;9.182;2022-09-01T13:25:06;98160.63;;;24.88;31.55